createdAt,value
2023-05-25T00:00:28.862Z,1019.34
2023-05-25T00:01:28.862Z,1019.31
2023-05-25T00:02:28.968Z,1019.31
2023-05-25T00:03:28.934Z,1019.32
2023-05-25T00:04:28.905Z,1019.35
2023-05-25T00:05:28.828Z,1019.32
2023-05-25T00:06:28.821Z,1019.33
2023-05-25T00:07:28.841Z,1019.30
2023-05-25T00:08:28.827Z,1019.32
2023-05-25T00:09:28.817Z,1019.27
2023-05-25T00:10:28.796Z,1019.32
2023-05-25T00:11:28.779Z,1019.30
2023-05-25T00:12:28.778Z,1019.27
2023-05-25T00:13:28.768Z,1019.30
2023-05-25T00:14:28.755Z,1019.32
2023-05-25T00:15:28.750Z,1019.35
2023-05-25T00:16:28.750Z,1019.32
2023-05-25T00:17:28.738Z,1019.34
2023-05-25T00:18:28.734Z,1019.35
2023-05-25T00:19:28.731Z,1019.32
2023-05-25T00:20:28.773Z,1019.34
2023-05-25T00:21:28.706Z,1019.33
2023-05-25T00:22:28.720Z,1019.38
2023-05-25T00:23:28.693Z,1019.35
2023-05-25T00:24:28.683Z,1019.35
2023-05-25T00:25:28.677Z,1019.36
2023-05-25T00:26:28.667Z,1019.33
2023-05-25T00:27:28.669Z,1019.33
2023-05-25T00:28:28.653Z,1019.34
2023-05-25T00:29:28.650Z,1019.38
2023-05-25T00:30:28.638Z,1019.36
2023-05-25T00:31:28.721Z,1019.37
2023-05-25T00:32:28.651Z,1019.37
2023-05-25T00:33:28.621Z,1019.36
2023-05-25T00:34:28.611Z,1019.35
2023-05-25T00:35:28.617Z,1019.32
2023-05-25T00:36:28.606Z,1019.30
2023-05-25T00:37:28.604Z,1019.30
2023-05-25T00:38:28.583Z,1019.30
2023-05-25T00:39:28.584Z,1019.30
2023-05-25T00:40:28.561Z,1019.28
2023-05-25T00:41:28.588Z,1019.28
2023-05-25T00:42:28.550Z,1019.30
2023-05-25T00:43:28.542Z,1019.22
2023-05-25T00:44:28.535Z,1019.30
2023-05-25T00:45:28.527Z,1019.27
2023-05-25T00:46:28.579Z,1019.23
2023-05-25T00:47:28.575Z,1019.26
2023-05-25T00:48:28.512Z,1019.28
2023-05-25T00:49:28.500Z,1019.28
2023-05-25T00:50:28.491Z,1019.23
2023-05-25T00:51:28.482Z,1019.22
2023-05-25T00:52:28.496Z,1019.25
2023-05-25T00:53:28.469Z,1019.23
2023-05-25T00:54:28.463Z,1019.26
2023-05-25T00:55:28.456Z,1019.26
2023-05-25T00:56:28.461Z,1019.26
2023-05-25T00:57:28.446Z,1019.26
2023-05-25T00:58:28.434Z,1019.26
2023-05-25T00:59:28.423Z,1019.23
2023-05-25T01:00:28.416Z,1019.26
2023-05-25T01:01:28.460Z,1019.22
2023-05-25T01:02:28.411Z,1019.20
2023-05-25T01:03:28.505Z,1019.23
2023-05-25T01:04:28.400Z,1019.23
2023-05-25T01:05:28.380Z,1019.22
2023-05-25T01:06:28.373Z,1019.23
2023-05-25T01:07:28.366Z,1019.24
2023-05-25T01:08:28.359Z,1019.24
2023-05-25T01:09:28.351Z,1019.24
2023-05-25T01:10:28.341Z,1019.24
2023-05-25T01:11:28.366Z,1019.25
2023-05-25T01:12:28.325Z,1019.21
2023-05-25T01:13:28.321Z,1019.30
2023-05-25T01:14:28.311Z,1019.28
2023-05-25T01:15:28.303Z,1019.23
2023-05-25T01:16:28.367Z,1019.23
2023-05-25T01:17:28.359Z,1019.25
2023-05-25T01:18:28.289Z,1019.23
2023-05-25T01:19:28.272Z,1019.25
2023-05-25T01:20:28.290Z,1019.24
2023-05-25T01:21:28.258Z,1019.28
2023-05-25T01:22:28.264Z,1019.27
2023-05-25T01:23:28.241Z,1019.26
2023-05-25T01:24:28.235Z,1019.27
2023-05-25T01:25:28.239Z,1019.28
2023-05-25T01:26:28.219Z,1019.25
2023-05-25T01:27:28.309Z,1019.26
2023-05-25T01:28:28.202Z,1019.20
2023-05-25T01:29:28.193Z,1019.20
2023-05-25T01:30:28.185Z,1019.21
2023-05-25T01:31:28.208Z,1019.21
2023-05-25T01:32:28.174Z,1019.24
2023-05-25T01:33:28.164Z,1019.22
2023-05-25T01:34:28.170Z,1019.26
2023-05-25T01:35:28.187Z,1019.23
2023-05-25T01:36:28.151Z,1019.30
2023-05-25T01:37:28.139Z,1019.30
2023-05-25T01:38:28.127Z,1019.30
2023-05-25T01:39:28.122Z,1019.32
2023-05-25T01:40:28.107Z,1019.25
2023-05-25T01:41:28.107Z,1019.28
2023-05-25T01:42:28.090Z,1019.31
2023-05-25T01:43:28.083Z,1019.32
2023-05-25T01:44:28.076Z,1019.28
2023-05-25T01:45:28.071Z,1019.28
2023-05-25T01:46:28.111Z,1019.33
2023-05-25T01:47:28.083Z,1019.30
2023-05-25T01:48:28.045Z,1019.30
2023-05-25T01:49:28.179Z,1019.30
2023-05-25T01:50:28.026Z,1019.30
2023-05-25T01:51:28.024Z,1019.27
2023-05-25T01:52:28.038Z,1019.28
2023-05-25T01:53:28.004Z,1019.27
2023-05-25T01:54:27.994Z,1019.25
2023-05-25T01:55:27.989Z,1019.23
2023-05-25T01:56:27.981Z,1019.24
2023-05-25T01:57:27.972Z,1019.27
2023-05-25T01:58:27.966Z,1019.25
2023-05-25T01:59:27.953Z,1019.24
2023-05-25T02:00:27.946Z,1019.24
2023-05-25T02:01:28.002Z,1019.24
2023-05-25T02:02:27.965Z,1019.26
2023-05-25T02:03:27.929Z,1019.24
2023-05-25T02:04:27.954Z,1019.25
2023-05-25T02:05:27.996Z,1019.27
2023-05-25T02:06:27.900Z,1019.22
2023-05-25T02:07:27.899Z,1019.26
2023-05-25T02:08:27.888Z,1019.21
2023-05-25T02:09:27.920Z,1019.24
2023-05-25T02:10:27.868Z,1019.20
2023-05-25T02:11:27.867Z,1019.21
2023-05-25T02:12:27.853Z,1019.17
2023-05-25T02:13:27.867Z,1019.17
2023-05-25T02:14:27.840Z,1019.19
2023-05-25T02:15:27.830Z,1019.18
2023-05-25T02:16:27.947Z,1019.20
2023-05-25T02:17:27.888Z,1019.27
2023-05-25T02:18:27.822Z,1019.24
2023-05-25T02:19:27.798Z,1019.27
2023-05-25T02:20:27.835Z,1019.26
2023-05-25T02:21:27.782Z,1019.27
2023-05-25T02:22:27.775Z,1019.28
2023-05-25T02:23:27.763Z,1019.27
2023-05-25T02:24:27.755Z,1019.32
2023-05-25T02:25:27.754Z,1019.29
2023-05-25T02:26:27.742Z,1019.30
2023-05-25T02:27:27.736Z,1019.31
2023-05-25T02:28:27.726Z,1019.32
2023-05-25T02:29:27.716Z,1019.33
2023-05-25T02:30:27.722Z,1019.34
2023-05-25T02:31:27.738Z,1019.36
2023-05-25T02:32:27.735Z,1019.34
2023-05-25T02:33:27.686Z,1019.41
2023-05-25T02:34:27.679Z,1019.40
2023-05-25T02:35:27.674Z,1019.40
2023-05-25T02:36:27.658Z,1019.44
2023-05-25T02:37:27.663Z,1019.39
2023-05-25T02:38:27.643Z,1019.42
2023-05-25T02:39:27.642Z,1019.43
2023-05-25T02:40:27.647Z,1019.40
2023-05-25T02:41:27.627Z,1019.41
2023-05-25T02:42:27.613Z,1019.40
2023-05-25T02:43:27.602Z,1019.37
2023-05-25T02:44:27.624Z,1019.38
2023-05-25T02:45:27.592Z,1019.40
2023-05-25T02:46:27.604Z,1019.38
2023-05-25T02:47:27.588Z,1019.35
2023-05-25T02:48:27.559Z,1019.31
2023-05-25T02:49:27.551Z,1019.28
2023-05-25T02:50:27.549Z,1019.30
2023-05-25T02:51:27.534Z,1019.28
2023-05-25T02:52:27.524Z,1019.27
2023-05-25T02:53:27.525Z,1019.28
2023-05-25T02:54:27.522Z,1019.31
2023-05-25T02:55:27.509Z,1019.31
2023-05-25T02:56:27.511Z,1019.32
2023-05-25T02:57:27.489Z,1019.31
2023-05-25T02:58:27.476Z,1019.31
2023-05-25T02:59:27.464Z,1019.31
2023-05-25T03:00:27.516Z,1019.28
2023-05-25T03:01:27.504Z,1019.29
2023-05-25T03:02:27.478Z,1019.31
2023-05-25T03:03:27.458Z,1019.30
2023-05-25T03:04:27.423Z,1019.32
2023-05-25T03:05:27.419Z,1019.35
2023-05-25T03:06:27.416Z,1019.35
2023-05-25T03:07:27.400Z,1019.33
2023-05-25T03:08:27.395Z,1019.32
2023-05-25T03:09:27.382Z,1019.34
2023-05-25T03:10:27.373Z,1019.34
2023-05-25T03:11:27.366Z,1019.33
2023-05-25T03:12:27.357Z,1019.31
2023-05-25T03:13:27.351Z,1019.32
2023-05-25T03:14:27.344Z,1019.33
2023-05-25T03:15:27.336Z,1019.32
2023-05-25T03:16:27.360Z,1019.34
2023-05-25T03:17:27.360Z,1019.34
2023-05-25T03:18:27.308Z,1019.36
2023-05-25T03:19:27.299Z,1019.37
2023-05-25T03:20:27.306Z,1019.39
2023-05-25T03:21:27.294Z,1019.43
2023-05-25T03:22:27.280Z,1019.47
2023-05-25T03:23:27.266Z,1019.47
2023-05-25T03:24:27.266Z,1019.48
2023-05-25T03:25:27.255Z,1019.45
2023-05-25T03:26:27.255Z,1019.46
2023-05-25T03:27:27.247Z,1019.48
2023-05-25T03:28:27.226Z,1019.45
2023-05-25T03:29:27.215Z,1019.45
2023-05-25T03:30:27.209Z,1019.44
2023-05-25T03:31:27.229Z,1019.45
2023-05-25T03:32:27.260Z,1019.47
2023-05-25T03:33:27.184Z,1019.45
2023-05-25T03:34:27.186Z,1019.48
2023-05-25T03:35:27.175Z,1019.43
2023-05-25T03:36:27.161Z,1019.47
2023-05-25T03:37:27.152Z,1019.46
2023-05-25T03:38:27.143Z,1019.47
2023-05-25T03:39:27.134Z,1019.45
2023-05-25T03:40:27.122Z,1019.46
2023-05-25T03:41:27.120Z,1019.48
2023-05-25T03:42:27.112Z,1019.48
2023-05-25T03:43:27.107Z,1019.47
2023-05-25T03:44:27.097Z,1019.46
2023-05-25T03:45:27.089Z,1019.50
2023-05-25T03:46:27.100Z,1019.48
2023-05-25T03:47:27.103Z,1019.50
2023-05-25T03:48:27.063Z,1019.54
2023-05-25T03:49:27.051Z,1019.53
2023-05-25T03:50:27.048Z,1019.56
2023-05-25T03:51:27.036Z,1019.60
2023-05-25T03:52:27.025Z,1019.60
2023-05-25T03:53:27.018Z,1019.63
2023-05-25T03:54:27.010Z,1019.67
2023-05-25T03:55:27.001Z,1019.68
2023-05-25T03:56:26.992Z,1019.70
2023-05-25T03:57:27.162Z,1019.75
2023-05-25T03:58:26.979Z,1019.71
2023-05-25T03:59:26.971Z,1019.75
2023-05-25T04:00:26.962Z,1019.83
2023-05-25T04:01:26.953Z,1019.84
2023-05-25T04:02:27.013Z,1019.89
2023-05-25T04:03:27.022Z,1019.89
2023-05-25T04:04:26.970Z,1019.90
2023-05-25T04:05:26.922Z,1019.89
2023-05-25T04:06:26.925Z,1019.92
2023-05-25T04:07:26.907Z,1019.91
2023-05-25T04:08:26.897Z,1019.94
2023-05-25T04:09:26.899Z,1019.93
2023-05-25T04:10:26.892Z,1019.85
2023-05-25T04:11:26.878Z,1019.89
2023-05-25T04:12:26.887Z,1019.87
2023-05-25T04:13:26.901Z,1019.93
2023-05-25T04:14:26.873Z,1019.92
2023-05-25T04:15:26.850Z,1019.89
2023-05-25T04:16:26.879Z,1019.91
2023-05-25T04:17:26.856Z,1019.95
2023-05-25T04:18:26.843Z,1019.93
2023-05-25T04:19:26.835Z,1019.94
2023-05-25T04:20:26.868Z,1019.98
2023-05-25T04:21:26.809Z,1019.97
2023-05-25T04:22:26.801Z,1019.96
2023-05-25T04:23:26.799Z,1019.98
2023-05-25T04:24:26.787Z,1019.97
2023-05-25T04:25:29.402Z,1019.98
2023-05-25T04:26:26.794Z,1020.04
2023-05-25T04:27:26.771Z,1020.01
2023-05-25T04:28:26.759Z,1020.05
2023-05-25T04:29:26.757Z,1020.02
2023-05-25T04:30:26.742Z,1020.03
2023-05-25T04:31:26.767Z,1020.04
2023-05-25T04:32:26.783Z,1020.04
2023-05-25T04:33:26.729Z,1020.08
2023-05-25T04:34:26.732Z,1020.08
2023-05-25T04:35:26.716Z,1020.08
2023-05-25T04:36:26.741Z,1020.12
2023-05-25T04:37:26.698Z,1020.09
2023-05-25T04:38:26.693Z,1020.07
2023-05-25T04:39:26.694Z,1020.07
2023-05-25T04:40:26.679Z,1020.04
2023-05-25T04:41:26.671Z,1020.06
2023-05-25T04:42:26.671Z,1020.05
2023-05-25T04:43:26.664Z,1020.08
2023-05-25T04:44:26.660Z,1020.03
2023-05-25T04:45:26.655Z,1020.05
2023-05-25T04:46:26.732Z,1020.07
2023-05-25T04:47:26.641Z,1020.06
2023-05-25T04:48:26.675Z,1020.06
2023-05-25T04:49:26.622Z,1020.03
2023-05-25T04:50:26.614Z,1020.02
2023-05-25T04:51:26.608Z,1020.04
2023-05-25T04:52:26.606Z,1020.06
2023-05-25T04:53:26.599Z,1020.08
2023-05-25T04:54:26.610Z,1020.07
2023-05-25T04:55:26.586Z,1020.07
2023-05-25T04:56:26.579Z,1020.09
2023-05-25T04:57:26.579Z,1020.09
2023-05-25T04:58:26.571Z,1020.08
2023-05-25T04:59:26.569Z,1020.06
2023-05-25T05:00:26.562Z,1020.08
2023-05-25T05:01:26.705Z,1020.04
2023-05-25T05:02:26.556Z,1020.05
2023-05-25T05:03:26.563Z,1020.04
2023-05-25T05:04:26.538Z,1020.05
2023-05-25T05:05:26.539Z,1020.07
2023-05-25T05:06:26.536Z,1020.04
2023-05-25T05:07:26.519Z,1020.01
2023-05-25T05:08:26.515Z,1020.06
2023-05-25T05:09:26.512Z,1020.02
2023-05-25T05:10:26.508Z,1020.03
2023-05-25T05:11:26.498Z,1020.01
2023-05-25T05:12:26.533Z,1020.01
2023-05-25T05:13:26.493Z,1020.00
2023-05-25T05:14:26.484Z,1019.97
2023-05-25T05:15:26.481Z,1019.94
2023-05-25T05:16:26.499Z,1019.95
2023-05-25T05:17:26.539Z,1019.93
2023-05-25T05:18:26.466Z,1019.97
2023-05-25T05:19:26.459Z,1020.02
2023-05-25T05:20:26.527Z,1020.01
2023-05-25T05:21:26.450Z,1020.00
2023-05-25T05:22:26.452Z,1020.01
2023-05-25T05:23:26.441Z,1020.05
2023-05-25T05:24:26.438Z,1020.05
2023-05-25T05:25:26.435Z,1020.06
2023-05-25T05:26:26.430Z,1020.08
2023-05-25T05:27:26.457Z,1020.12
2023-05-25T05:28:26.419Z,1020.16
2023-05-25T05:29:26.418Z,1020.18
2023-05-25T05:30:26.415Z,1020.13
2023-05-25T05:31:26.441Z,1020.14
2023-05-25T05:32:26.415Z,1020.17
2023-05-25T05:33:26.531Z,1020.15
2023-05-25T05:34:26.450Z,1020.12
2023-05-25T05:35:26.405Z,1020.18
2023-05-25T05:36:26.390Z,1020.16
2023-05-25T05:37:26.384Z,1020.16
2023-05-25T05:38:26.444Z,1020.21
2023-05-25T05:39:26.371Z,1020.21
2023-05-25T05:40:26.372Z,1020.24
2023-05-25T05:41:26.371Z,1020.26
2023-05-25T05:42:26.371Z,1020.22
2023-05-25T05:43:26.361Z,1020.24
2023-05-25T05:44:28.947Z,1020.25
2023-05-25T05:45:26.362Z,1020.30
2023-05-25T05:46:26.383Z,1020.26
2023-05-25T05:47:26.359Z,1020.26
2023-05-25T05:48:26.347Z,1020.29
2023-05-25T05:49:26.355Z,1020.28
2023-05-25T05:50:26.343Z,1020.28
2023-05-25T05:51:26.338Z,1020.29
2023-05-25T05:52:26.339Z,1020.29
2023-05-25T05:53:26.336Z,1020.27
2023-05-25T05:54:26.330Z,1020.28
2023-05-25T05:55:26.346Z,1020.30
2023-05-25T05:56:26.324Z,1020.31
2023-05-25T05:57:26.322Z,1020.33
2023-05-25T05:58:26.322Z,1020.30
2023-05-25T05:59:26.316Z,1020.31
2023-05-25T06:00:26.318Z,1020.32
2023-05-25T06:01:26.309Z,1020.28
2023-05-25T06:02:26.380Z,1020.34
2023-05-25T06:03:26.343Z,1020.38
2023-05-25T06:04:26.308Z,1020.40
2023-05-25T06:05:26.347Z,1020.38
2023-05-25T06:06:26.307Z,1020.38
2023-05-25T06:07:26.312Z,1020.38
2023-05-25T06:08:26.318Z,1020.38
2023-05-25T06:09:26.307Z,1020.45
2023-05-25T06:10:26.301Z,1020.44
2023-05-25T06:11:26.297Z,1020.46
2023-05-25T06:12:26.302Z,1020.42
2023-05-25T06:13:26.296Z,1020.40
2023-05-25T06:14:28.328Z,1020.40
2023-05-25T06:15:26.297Z,1020.45
2023-05-25T06:16:26.342Z,1020.46
2023-05-25T06:17:26.321Z,1020.43
2023-05-25T06:18:26.305Z,1020.42
2023-05-25T06:19:26.296Z,1020.43
2023-05-25T06:20:26.333Z,1020.38
2023-05-25T06:21:26.308Z,1020.41
2023-05-25T06:22:26.341Z,1020.44
2023-05-25T06:23:26.300Z,1020.48
2023-05-25T06:24:26.317Z,1020.50
2023-05-25T06:25:26.294Z,1020.50
2023-05-25T06:26:26.301Z,1020.53
2023-05-25T06:27:26.302Z,1020.50
2023-05-25T06:28:26.299Z,1020.52
2023-05-25T06:29:26.305Z,1020.52
2023-05-25T06:30:26.304Z,1020.50
2023-05-25T06:31:26.345Z,1020.47
2023-05-25T06:32:26.347Z,1020.47
2023-05-25T06:33:26.312Z,1020.46
2023-05-25T06:34:26.309Z,1020.47
2023-05-25T06:35:26.310Z,1020.45
2023-05-25T06:36:27.429Z,1020.45
2023-05-25T06:37:26.308Z,1020.46
2023-05-25T06:38:26.305Z,1020.50
2023-05-25T06:39:26.308Z,1020.48
2023-05-25T06:40:26.315Z,1020.51
2023-05-25T06:41:26.317Z,1020.51
2023-05-25T06:42:26.314Z,1020.56
2023-05-25T06:43:26.321Z,1020.56
2023-05-25T06:44:26.317Z,1020.58
2023-05-25T06:45:26.322Z,1020.61
2023-05-25T06:46:26.361Z,1020.58
2023-05-25T06:47:26.325Z,1020.60
2023-05-25T06:48:26.326Z,1020.61
2023-05-25T06:49:26.329Z,1020.61
2023-05-25T06:50:26.336Z,1020.61
2023-05-25T06:51:26.326Z,1020.62
2023-05-25T06:52:26.334Z,1020.59
2023-05-25T06:53:26.339Z,1020.59
2023-05-25T06:54:26.333Z,1020.61
2023-05-25T06:55:26.346Z,1020.57
2023-05-25T06:56:26.350Z,1020.60
2023-05-25T06:57:26.340Z,1020.61
2023-05-25T06:58:26.342Z,1020.55
2023-05-25T06:59:26.347Z,1020.58
2023-05-25T07:00:26.393Z,1020.56
2023-05-25T07:01:26.401Z,1020.56
2023-05-25T07:02:26.422Z,1020.58
2023-05-25T07:03:26.353Z,1020.58
2023-05-25T07:04:26.357Z,1020.59
2023-05-25T07:05:26.401Z,1020.58
2023-05-25T07:06:26.398Z,1020.59
2023-05-25T07:07:26.361Z,1020.57
2023-05-25T07:08:26.370Z,1020.57
2023-05-25T07:09:26.378Z,1020.60
2023-05-25T07:10:26.417Z,1020.62
2023-05-25T07:11:26.377Z,1020.65
2023-05-25T07:12:26.396Z,1020.60
2023-05-25T07:13:26.393Z,1020.61
2023-05-25T07:14:26.393Z,1020.56
2023-05-25T07:15:26.394Z,1020.58
2023-05-25T07:16:26.452Z,1020.61
2023-05-25T07:17:26.477Z,1020.63
2023-05-25T07:18:26.405Z,1020.61
2023-05-25T07:19:26.404Z,1020.60
2023-05-25T07:20:26.521Z,1020.61
2023-05-25T07:21:26.413Z,1020.60
2023-05-25T07:22:26.412Z,1020.59
2023-05-25T07:23:26.442Z,1020.64
2023-05-25T07:24:26.416Z,1020.63
2023-05-25T07:25:26.432Z,1020.61
2023-05-25T07:26:26.427Z,1020.63
2023-05-25T07:27:26.428Z,1020.65
2023-05-25T07:28:26.442Z,1020.65
2023-05-25T07:29:26.434Z,1020.70
2023-05-25T07:30:26.438Z,1020.69
2023-05-25T07:31:26.496Z,1020.69
2023-05-25T07:32:26.461Z,1020.72
2023-05-25T07:33:26.454Z,1020.70
2023-05-25T07:34:27.814Z,1020.66
2023-05-25T07:35:26.465Z,1020.73
2023-05-25T07:36:26.464Z,1020.74
2023-05-25T07:37:26.468Z,1020.71
2023-05-25T07:38:26.503Z,1020.74
2023-05-25T07:39:26.474Z,1020.74
2023-05-25T07:40:26.465Z,1020.69
2023-05-25T07:41:26.474Z,1020.75
2023-05-25T07:42:26.484Z,1020.74
2023-05-25T07:43:26.484Z,1020.74
2023-05-25T07:44:26.491Z,1020.68
2023-05-25T07:45:26.489Z,1020.77
2023-05-25T07:46:26.564Z,1020.80
2023-05-25T07:47:26.519Z,1020.81
2023-05-25T07:48:26.496Z,1020.81
2023-05-25T07:49:26.497Z,1020.80
2023-05-25T07:50:26.498Z,1020.81
2023-05-25T07:51:26.518Z,1020.80
2023-05-25T07:52:26.502Z,1020.82
2023-05-25T07:53:26.515Z,1020.82
2023-05-25T07:54:26.520Z,1020.87
2023-05-25T07:55:26.517Z,1020.92
2023-05-25T07:56:26.517Z,1020.92
2023-05-25T07:57:26.555Z,1020.85
2023-05-25T07:58:26.542Z,1020.93
2023-05-25T07:59:26.522Z,1020.96
2023-05-25T08:00:26.533Z,1020.96
2023-05-25T08:01:27.120Z,1020.98
2023-05-25T08:02:26.643Z,1020.91
2023-05-25T08:03:39.793Z,1020.93
2023-05-25T08:04:26.594Z,1020.91
2023-05-25T08:05:26.542Z,1020.93
2023-05-25T08:06:26.548Z,1020.95
2023-05-25T08:07:26.552Z,1020.99
2023-05-25T08:08:26.559Z,1020.91
2023-05-25T08:09:26.558Z,1020.95
2023-05-25T08:10:26.555Z,1021.01
2023-05-25T08:11:26.560Z,1020.96
2023-05-25T08:12:46.169Z,1020.94
2023-05-25T08:13:26.584Z,1020.99
2023-05-25T08:14:26.572Z,1021.00
2023-05-25T08:15:26.587Z,1020.97
2023-05-25T08:16:26.597Z,1021.01
2023-05-25T08:17:26.611Z,1021.04
2023-05-25T08:18:26.580Z,1021.06
2023-05-25T08:19:26.580Z,1021.05
2023-05-25T08:20:26.633Z,1020.98
2023-05-25T08:21:26.583Z,1020.87
2023-05-25T08:22:26.590Z,1020.83
2023-05-25T08:23:26.624Z,1020.85
2023-05-25T08:24:26.595Z,1020.85
2023-05-25T08:25:26.654Z,1020.85
2023-05-25T08:26:38.323Z,1020.84
2023-05-25T08:27:26.598Z,1020.84
2023-05-25T08:28:26.600Z,1020.80
2023-05-25T08:29:26.602Z,1020.79
2023-05-25T08:30:26.607Z,1020.78
2023-05-25T08:31:26.673Z,1020.82
2023-05-25T08:32:26.614Z,1020.85
2023-05-25T08:33:26.608Z,1020.82
2023-05-25T08:34:26.606Z,1020.80
2023-05-25T08:35:26.609Z,1020.79
2023-05-25T08:36:26.608Z,1020.78
2023-05-25T08:37:26.617Z,1020.78
2023-05-25T08:38:26.614Z,1020.79
2023-05-25T08:39:26.611Z,1020.81
2023-05-25T08:40:26.612Z,1020.83
2023-05-25T08:41:26.630Z,1020.80
2023-05-25T08:42:26.614Z,1020.77
2023-05-25T08:43:26.634Z,1020.74
2023-05-25T08:44:26.614Z,1020.76
2023-05-25T08:45:34.310Z,1020.76
2023-05-25T08:46:26.613Z,1020.74
2023-05-25T08:47:26.626Z,1020.77
2023-05-25T08:48:40.150Z,1020.76
2023-05-25T08:49:26.619Z,1020.76
2023-05-25T08:50:26.618Z,1020.88
2023-05-25T08:51:26.611Z,1020.81
2023-05-25T08:52:26.629Z,1020.79
2023-05-25T08:53:26.638Z,1020.87
2023-05-25T08:54:26.616Z,1020.82
2023-05-25T08:55:26.619Z,1020.84
2023-05-25T08:56:26.621Z,1020.84
2023-05-25T08:57:26.612Z,1020.92
2023-05-25T08:58:26.604Z,1020.89
2023-05-25T08:59:26.613Z,1020.88
2023-05-25T09:00:26.610Z,1020.82
2023-05-25T09:01:26.655Z,1020.90
2023-05-25T09:02:26.642Z,1020.87
2023-05-25T09:03:26.773Z,1020.88
2023-05-25T09:04:26.611Z,1020.87
2023-05-25T09:05:26.614Z,1020.93
2023-05-25T09:06:26.603Z,1020.94
2023-05-25T09:07:26.606Z,1020.95
2023-05-25T09:08:26.604Z,1020.95
2023-05-25T09:09:26.604Z,1020.90
2023-05-25T09:10:26.604Z,1020.94
2023-05-25T09:11:37.269Z,1020.86
2023-05-25T09:12:26.600Z,1020.88
2023-05-25T09:13:26.666Z,1020.89
2023-05-25T09:14:26.603Z,1020.86
2023-05-25T09:15:26.599Z,1020.89
2023-05-25T09:16:26.641Z,1020.89
2023-05-25T09:17:26.614Z,1020.83
2023-05-25T09:18:26.618Z,1020.85
2023-05-25T09:19:26.594Z,1020.86
2023-05-25T09:20:26.632Z,1020.90
2023-05-25T09:21:26.596Z,1020.86
2023-05-25T09:22:26.602Z,1020.88
2023-05-25T09:23:26.592Z,1020.92
2023-05-25T09:24:26.592Z,1020.93
2023-05-25T09:25:26.589Z,1020.92
2023-05-25T09:26:26.596Z,1020.91
2023-05-25T09:27:26.589Z,1020.98
2023-05-25T09:28:27.699Z,1020.96
2023-05-25T09:29:26.588Z,1020.96
2023-05-25T09:30:26.586Z,1020.96
2023-05-25T09:31:26.622Z,1020.97
2023-05-25T09:32:26.839Z,1020.96
2023-05-25T09:33:26.596Z,1020.96
2023-05-25T09:34:26.582Z,1020.98
2023-05-25T09:35:26.581Z,1021.02
2023-05-25T09:36:26.620Z,1021.03
2023-05-25T09:37:26.661Z,1020.96
2023-05-25T09:38:26.983Z,1020.97
2023-05-25T09:39:26.589Z,1021.02
2023-05-25T09:40:26.586Z,1020.98
2023-05-25T09:41:26.577Z,1021.01
2023-05-25T09:42:26.568Z,1021.04
2023-05-25T09:43:40.760Z,1021.02
2023-05-25T09:44:26.561Z,1021.05
2023-05-25T09:45:26.556Z,1021.00
2023-05-25T09:46:26.650Z,1021.05
2023-05-25T09:47:26.572Z,1021.04
2023-05-25T09:48:26.556Z,1021.11
2023-05-25T09:49:26.550Z,1021.11
2023-05-25T09:50:26.558Z,1021.13
2023-05-25T09:51:26.542Z,1021.10
2023-05-25T09:52:26.548Z,1021.12
2023-05-25T09:53:26.538Z,1021.12
2023-05-25T09:54:26.535Z,1021.13
2023-05-25T09:55:31.699Z,1021.16
2023-05-25T09:56:26.530Z,1021.14
2023-05-25T09:57:26.532Z,1021.16
2023-05-25T09:58:26.521Z,1021.12
2023-05-25T09:59:26.523Z,1021.14
2023-05-25T10:00:26.523Z,1021.10
2023-05-25T10:01:26.565Z,1021.13
2023-05-25T10:02:26.540Z,1021.14
2023-05-25T10:03:26.523Z,1021.10
2023-05-25T10:04:26.555Z,1021.13
2023-05-25T10:05:26.509Z,1021.12
2023-05-25T10:06:26.509Z,1021.13
2023-05-25T10:07:26.500Z,1021.20
2023-05-25T10:08:28.895Z,1021.13
2023-05-25T10:09:26.504Z,1021.14
2023-05-25T10:10:26.499Z,1021.15
2023-05-25T10:11:26.525Z,1021.06
2023-05-25T10:12:26.494Z,1021.01
2023-05-25T10:13:26.491Z,1021.09
2023-05-25T10:14:29.145Z,1021.15
2023-05-25T10:15:26.484Z,1021.07
2023-05-25T10:16:26.558Z,1021.05
2023-05-25T10:17:26.598Z,1021.08
2023-05-25T10:18:26.578Z,1021.04
2023-05-25T10:19:26.470Z,1021.07
2023-05-25T10:20:29.328Z,1021.11
2023-05-25T10:21:26.470Z,1021.12
2023-05-25T10:22:26.544Z,1021.11
2023-05-25T10:23:26.472Z,1021.13
2023-05-25T10:24:26.489Z,1021.14
2023-05-25T10:25:26.462Z,1021.15
2023-05-25T10:26:26.461Z,1021.15
2023-05-25T10:27:27.765Z,1021.17
2023-05-25T10:28:26.455Z,1021.17
2023-05-25T10:29:26.457Z,1021.17
2023-05-25T10:30:26.446Z,1021.16
2023-05-25T10:31:26.517Z,1021.17
2023-05-25T10:32:26.553Z,1021.15
2023-05-25T10:33:26.459Z,1021.10
2023-05-25T10:34:26.454Z,1021.14
2023-05-25T10:35:26.434Z,1021.10
2023-05-25T10:36:26.442Z,1021.15
2023-05-25T10:37:26.476Z,1021.10
2023-05-25T10:38:26.430Z,1021.11
2023-05-25T10:39:26.428Z,1021.09
2023-05-25T10:40:26.418Z,1021.13
2023-05-25T10:41:26.419Z,1021.09
2023-05-25T10:42:26.422Z,1021.06
2023-05-25T10:43:26.420Z,1021.10
2023-05-25T10:44:26.423Z,1021.09
2023-05-25T10:45:26.409Z,1021.06
2023-05-25T10:46:26.433Z,1021.06
2023-05-25T10:47:26.474Z,1021.07
2023-05-25T10:48:26.407Z,1021.08
2023-05-25T10:49:26.400Z,1021.05
2023-05-25T10:50:26.399Z,1021.05
2023-05-25T10:51:26.394Z,1021.02
2023-05-25T10:52:26.393Z,1021.03
2023-05-25T10:53:26.405Z,1021.00
2023-05-25T10:54:26.389Z,1021.02
2023-05-25T10:55:26.384Z,1021.03
2023-05-25T10:56:26.385Z,1021.02
2023-05-25T10:57:26.435Z,1021.02
2023-05-25T10:58:26.379Z,1021.02
2023-05-25T10:59:26.377Z,1020.98
2023-05-25T11:00:26.404Z,1020.99
2023-05-25T11:01:26.443Z,1020.96
2023-05-25T11:02:26.386Z,1020.99
2023-05-25T11:03:26.376Z,1020.96
2023-05-25T11:04:26.439Z,1020.98
2023-05-25T11:05:26.400Z,1021.03
2023-05-25T11:06:26.359Z,1021.04
2023-05-25T11:07:26.353Z,1021.04
2023-05-25T11:08:26.362Z,1020.97
2023-05-25T11:09:26.405Z,1020.99
2023-05-25T11:10:26.355Z,1020.93
2023-05-25T11:11:26.351Z,1020.95
2023-05-25T11:12:26.350Z,1020.96
2023-05-25T11:13:26.349Z,1021.00
2023-05-25T11:14:26.349Z,1021.02
2023-05-25T11:15:26.343Z,1020.97
2023-05-25T11:16:26.370Z,1020.98
2023-05-25T11:17:26.357Z,1020.94
2023-05-25T11:18:26.341Z,1020.98
2023-05-25T11:19:26.338Z,1020.94
2023-05-25T11:20:26.350Z,1020.91
2023-05-25T11:21:26.330Z,1020.97
2023-05-25T11:22:26.334Z,1021.03
2023-05-25T11:23:26.342Z,1021.04
2023-05-25T11:24:26.342Z,1021.00
2023-05-25T11:25:26.331Z,1021.01
2023-05-25T11:26:26.339Z,1021.04
2023-05-25T11:27:26.332Z,1021.07
2023-05-25T11:28:26.317Z,1021.09
2023-05-25T11:29:26.314Z,1021.05
2023-05-25T11:30:26.314Z,1021.12
2023-05-25T11:31:26.398Z,1021.10
2023-05-25T11:32:26.435Z,1021.12
2023-05-25T11:33:26.308Z,1021.13
2023-05-25T11:34:26.305Z,1021.13
2023-05-25T11:35:26.304Z,1021.13
2023-05-25T11:36:26.297Z,1021.11
2023-05-25T11:37:26.301Z,1021.15
2023-05-25T11:38:26.296Z,1021.15
2023-05-25T11:39:26.304Z,1021.16
2023-05-25T11:40:26.305Z,1021.13
2023-05-25T11:41:26.342Z,1021.12
2023-05-25T11:42:26.330Z,1021.09
2023-05-25T11:43:26.300Z,1021.09
2023-05-25T11:44:26.290Z,1021.09
2023-05-25T11:45:26.284Z,1021.10
2023-05-25T11:46:26.321Z,1021.06
2023-05-25T11:47:26.315Z,1021.09
2023-05-25T11:48:26.277Z,1021.12
2023-05-25T11:49:26.279Z,1021.13
2023-05-25T11:50:26.275Z,1021.16
2023-05-25T11:51:26.275Z,1021.12
2023-05-25T11:52:26.282Z,1021.19
2023-05-25T11:53:26.270Z,1021.12
2023-05-25T11:54:26.290Z,1021.03
2023-05-25T11:55:26.265Z,1021.09
2023-05-25T11:56:35.060Z,1021.05
2023-05-25T11:57:26.266Z,1021.02
2023-05-25T11:58:26.263Z,1021.08
2023-05-25T11:59:27.728Z,1021.09
2023-05-25T12:00:26.264Z,1021.00
2023-05-25T12:01:26.259Z,1021.03
2023-05-25T12:02:26.295Z,1021.03
2023-05-25T12:03:26.313Z,1021.08
2023-05-25T12:04:26.293Z,1021.02
2023-05-25T12:05:26.262Z,1020.93